Aérodrome :
LOGIN :

S'inscrire | Disclaimer

   EN    FR    IT 

 










Légende :    VFR   VFR Marginal   IFR   IFR Intensif   IFR Très Intensif
Visi : 
Plafond : 
>= 8 km
>= 3000ft
5 à 8 km
1000 à 3000 ft
1500m à 5 km
500 à 1000 ft
800 à 1500m
200 à 500 ft
< 800m
< 200 ft
Symboles :   Orages  Brouillard  Fortes neiges  Fortes précipitations  Vent > 20 kt
SIGMETs :   Divers  Orages  Givrage  Turbulence  Onde Orograph.  Cendres Volcan.






- Altitude de l'aérodrome : 1516 ft
- Code IATA : AGB


EDMA - Augsburg

DERNIER METAR :
  • 231550Z 23013KT 9999 -SHRA FEW049CB 12/10 Q1015

METARs EXPIRÉS :
  • 231520Z 23018KT 9999 -SHRA FEW037CB 12/10 Q1016
  • 231450Z 10006KT 070V130 9999 FEW049CB 19/07 Q1015
  • 231420Z 06004KT 010V090 CAVOK 19/10 Q1014
  • 231350Z 04009KT 020V080 9999 FEW049 19/09 Q1014
  • 231320Z 04006KT 350V110 9999 FEW049 20/11 Q1014
  • 231250Z 05008KT 9999 FEW044 19/10 Q1015
  • 231220Z 06005KT 010V100 9999 FEW044 19/09 Q1015
  • 231150Z 06006KT 010V090 CAVOK 19/11 Q1015
  • 231120Z 01005KT 330V050 CAVOK 18/10 Q1016

TAF TAF EDMA
Valide du 23 à 15h jusqu'au 24 à 00h UTC


231400Z 2315/2324 04006KT 9999 BKN045
BECMG 2315/2317 27006KT
TEMPO 2315/2321 25015G25KT TSRA BKN012 BKN030CB
PROB30
TEMPO 2315/2317 27025G40KT 1500 TSRAGR BKN008 BKN020CB
TEMPO 2321/2324 3000 RA BKN008



MET'MAP, la Météo Aéronautique d'un coup d'oeil ! - Copyright ORBIFLY Décembre 2007 - Disclaimer

ORBIFLY MET'MAP TEAM :

Programmation & Développement : Alexandra Zaïnal
Sur une idée originale de : Baudouin d'Aumeries
Soutien technique & logistique : Manuel Goepfert
Assistance : Marc-Olivier Méhu




SOURCES & CREDITS :

   NOAA